• Join FlightAware (Why Join?)
  • Login
  • US Flag 
05:41PM EDT


 

Airport Tracker/Info


-or-


 

Live Flight TrackerFlight Track Log ✈ UAL495 ✈ 03-May-2013 ✈ KDEN - KIAD

Flight Track Log - Related Links

Times and Time Zones

All times are in EDT time to prevent confusion due to time zone crossing. See the UAL495 flight status page for this flight to view local times or setup timezone preferences in your user account.

Time Position Orientation Groundspeed Altitude Reporting Facility
EDT Latitude Longitude Course Direction KTS MPH feet Rate Location/Type
12:32PM 39.9053 -104.6861 72° East 190 219 6,400  Level Denver Center
12:33PM 39.9369 -104.6139 60° Northeast 239 275 8,300 1,680 Climbing Denver Center
12:34PM 39.9506 -104.5117 80° East 292 336 10,000 840 Climbing Denver Center
12:35PM 39.9506 -104.3744 90° East 356 410 10,100 540 Climbing Denver Center
12:36PM 39.8667 -104.0587 90° East  Level FlightAware Approximate
12:37PM 39.8667 -103.9063 90° East  Level FlightAware Approximate
12:37PM 39.9206 -104.2450 107° East 372 428 11,200  Level Denver Center
12:38PM 39.8776 -103.7563 72° East  Level FlightAware Approximate
12:38PM 39.8972 -104.1008 102° East 380 437 13,600  Level Denver Center
12:39PM 39.8783 -103.9622 100° East 387 445 16,400 2,220 Climbing Denver Center
12:40PM 39.8767 -103.8178 91° East 403 464 18,200 1,980 Climbing Denver Center
12:41PM 39.8925 -103.6583 83° East 395 455 20,500 2,100 Climbing Denver Center
12:42PM 39.9100 -103.5050 81° East 421 484 22,600 1,920 Climbing Denver Center
12:43PM 39.9272 -103.3486 82° East 431 496 24,500 1,740 Climbing Denver Center
12:44PM 39.9447 -103.1906 82° East 437 503 26,300 1,200 Climbing Denver Center
12:45PM 39.9600 -103.0533 82° East 453 521 27,000 1,260 Climbing Denver Center
12:46PM 39.9822 -102.8567 82° East 465 535 29,000 1,740 Climbing Denver Center
12:47PM 40.0017 -102.6658 82° East 463 533 30,700 1,440 Climbing Denver Center
12:48PM 40.0194 -102.5069 82° East 464 534 32,000 1,380 Climbing Denver Center
12:49PM 40.0386 -102.3200 82° East 467 537 33,600 1,440 Climbing Denver Center
12:50PM 40.0547 -102.1636 82° East 458 527 35,000 660 Climbing Denver Center
12:51PM 40.0733 -101.9819 82° East 454 522 35,000  Level Denver Center
12:52PM 40.0889 -101.8211 83° East 467 537 35,000  Level Denver Center
12:53PM 40.1075 -101.6336 83° East 469 540 35,000 720 Level Denver Center
12:54PM 40.1222 -101.4736 83° East 465 535 36,500 960 Climbing Denver Center
12:55PM 40.1375 -101.3233 82° East 441 507 37,000 240 Climbing Denver Center
12:56PM 40.1539 -101.1419 83° East 452 520 37,000  Level Denver Center
12:57PM 40.1681 -100.9825 83° East 463 533 37,000  Level Denver Center
12:58PM 40.1856 -100.7942 83° East 469 540 37,000  Level Denver Center
12:59PM 40.1997 -100.6322 83° East 471 542 37,000  Level Denver Center
01:00PM 40.2064 -100.4419 87° East 473 544 37,000  Level Denver Center
01:01PM 40.2094 -100.2769 89° East 476 548 37,000  Level Denver Center
01:02PM 40.2114 -100.0858 89° East 475 547 37,000  Level Denver Center
01:03PM 40.2133 -99.9239 89° East 470 541 37,000  Level Denver Center
01:04PM 40.2156 -99.7317 89° East 473 544 37,000  Level Denver Center
01:05PM 40.2169 -99.5697 89° East 470 541 37,000  Level Denver Center
01:07PM 40.2194 -99.3789 89° East 471 542 37,000  Level Denver Center
01:08PM 40.2203 -99.2156 90° East 470 541 37,000  Level Denver Center
01:09PM 40.2217 -99.0236 89° East 473 544 37,000  Level Denver Center
01:10PM 40.2211 -98.8619 90° East 469 540 37,000  Level Denver Center
01:10PM 40.2217 -98.8014 89° East 470 541 37,000  Level Minneapolis Center
01:11PM 40.2217 -98.6319 90° East 469 540 37,000  Level Minneapolis Center
01:12PM 40.2222 -98.4281 90° East 468 539 37,000  Level Minneapolis Center
01:13PM 40.2214 -98.2925 90° East 468 539 37,000  Level Minneapolis Center
01:14PM 40.2222 -98.0906 90° East 467 537 37,000  Level Minneapolis Center
01:15PM 40.2222 -97.9228 90° East 465 535 37,000  Level Minneapolis Center
01:16PM 40.2211 -97.7544 90° East 464 534 37,000  Level Minneapolis Center
01:17PM 40.2206 -97.6197 90° East 464 534 37,000  Level Minneapolis Center
01:18PM 40.2175 -97.3836 91° East 464 534 37,000  Level Minneapolis Center
01:19PM 40.2150 -97.2147 91° East 465 535 37,000  Level Minneapolis Center
01:20PM 40.2133 -97.0483 91° East 463 533 37,000  Level Minneapolis Center
01:21PM 40.2119 -96.8842 91° East 460 529 37,000  Level Minneapolis Center
01:22PM 40.2083 -96.7183 92° East 458 527 37,000  Level Minneapolis Center
01:23PM 40.2050 -96.5533 91° East 457 526 37,000  Level Minneapolis Center
01:24PM 40.2036 -96.3917 91° East 450 518 37,000  Level Minneapolis Center
01:25PM 40.2022 -96.1958 90° East 451 519 37,000  Level Minneapolis Center
01:26PM 40.2308 -96.0367 77° East 454 522 37,000  Level Minneapolis Center
01:28PM 40.2611 -95.8747 76° East 461 531 37,000  Level Minneapolis Center
01:29PM 40.2908 -95.7147 76° East 456 525 37,000  Level Minneapolis Center
01:30PM 40.3211 -95.5517 76° East 460 529 37,000  Level Minneapolis Center
01:31PM 40.3514 -95.3875 76° East 464 534 37,000  Level Minneapolis Center
01:32PM 40.3869 -95.1922 76° East 462 532 37,000  Level Minneapolis Center
01:33PM 40.4147 -95.0336 77° East 453 521 37,000  Level Minneapolis Center
01:34PM 40.4422 -94.8744 77° East 451 519 37,000  Level Minneapolis Center
01:35PM 40.4700 -94.7144 77° East 451 519 37,000  Level Minneapolis Center
01:36PM 40.5011 -94.5311 77° East 449 517 37,000  Level Minneapolis Center
01:37PM 40.5328 -94.3425 77° East 445 512 37,000  Level Minneapolis Center
01:38PM 40.5594 -94.1839 77° East 445 512 37,000  Level Minneapolis Center
01:39PM 40.5856 -94.0239 78° East 448 516 37,000  Level Minneapolis Center
01:40PM 40.6161 -93.8342 78° East 446 513 37,000  Level Minneapolis Center
01:41PM 40.6383 -93.6758 79° East 444 511 37,000  Level Minneapolis Center
01:42PM 40.6658 -93.4869 79° East 441 507 37,000  Level Minneapolis Center
01:43PM 40.6889 -93.3294 79° East 440 506 37,000  Level Minneapolis Center
01:44PM 40.7114 -93.1719 79° East 440 506 37,000  Level Minneapolis Center
01:45PM 40.7347 -93.0136 79° East 440 506 37,000  Level Minneapolis Center
01:47PM 40.7556 -92.8572 80° East 436 502 37,000  Level Minneapolis Center
01:47PM 40.7686 -92.7608 79° East 436 502 37,000  Level Chicago Center
01:48PM 40.7625 -92.6994 79° East  Level FlightAware Approximate
01:48PM 40.7897 -92.6019 80° East 438 504 37,000  Level Chicago Center
01:49PM 40.8128 -92.4436 79° East 439 505 37,000  Level Chicago Center
01:50PM 40.8336 -92.2861 80° East 437 503 37,000  Level Chicago Center
01:51PM 40.8475 -92.1286 83° East 433 498 37,000  Level Chicago Center
01:52PM 40.8564 -91.9414 86° East 429 494 37,000  Level Chicago Center
01:53PM 40.8656 -91.7856 86° East 429 494 37,000  Level Chicago Center
01:54PM 40.8736 -91.6286 86° East 430 495 37,000  Level Chicago Center
01:55PM 40.8814 -91.4700 86° East 433 498 37,000  Level Chicago Center
01:56PM 40.8894 -91.3039 86° East 437 503 37,000  Level Chicago Center
01:57PM 40.8972 -91.1439 86° East 438 504 37,000  Level Chicago Center
01:58PM 40.9047 -90.9819 86° East 441 507 37,000  Level Chicago Center
01:59PM 40.9117 -90.8181 87° East 446 513 37,000  Level Chicago Center
02:00PM 40.9200 -90.6225 87° East 443 510 37,000  Level Chicago Center
02:01PM 40.9269 -90.4589 87° East 444 511 37,000  Level Chicago Center
02:03PM 40.9339 -90.2947 87° East 445 512 37,000  Level Chicago Center
02:04PM 40.9406 -90.1186 87° East 447 514 37,000  Level Chicago Center
02:05PM 40.9467 -89.9539 87° East 450 518 37,000  Level Chicago Center
02:06PM 40.9517 -89.7894 88° East 451 519 37,000  Level Chicago Center
02:07PM 40.9581 -89.6269 87° East 447 514 37,000  Level Chicago Center
02:08PM 40.9631 -89.4608 88° East 451 519 37,000  Level Chicago Center
02:09PM 40.9694 -89.2967 87° East 447 514 37,000  Level Chicago Center
02:10PM 40.9733 -89.1306 88° East 448 516 37,000  Level Chicago Center
02:11PM 40.9786 -88.9311 88° East 450 518 37,000  Level Chicago Center
02:12PM 40.9828 -88.7728 88° East 450 518 37,000  Level Chicago Center
02:13PM 40.9867 -88.6064 88° East 455 524 37,000  Level Chicago Center
02:14PM 40.9914 -88.4411 88° East 457 526 37,000  Level Chicago Center
02:15PM 40.9953 -88.2419 88° East 458 527 37,000  Level Chicago Center
02:16PM 40.9992 -88.0778 88° East 453 521 37,000  Level Chicago Center
02:17PM 41.0022 -87.9122 89° East 456 525 37,000  Level Chicago Center
02:18PM 41.0025 -87.7472 90° East 456 525 37,000  Level Chicago Center
02:19PM 41.0047 -87.5478 89° East 457 526 37,000  Level Chicago Center
02:20PM 41.0044 -87.3831 90° East 454 522 37,000  Level Chicago Center
02:21PM 41.0047 -87.2175 90° East 453 521 37,000  Level Chicago Center
02:22PM 41.0044 -87.0500 90° East 456 525 37,000  Level Chicago Center
02:23PM 41.0053 -86.8833 90° East 456 525 37,000  Level Chicago Center
02:24PM 41.0056 -86.7136 90° East 456 525 37,000  Level Chicago Center
02:25PM 41.0047 -86.5464 90° East 456 525 37,000  Level Chicago Center
02:26PM 41.0025 -86.3467 91° East 453 521 37,000  Level Chicago Center
02:27PM 41.0014 -86.1797 90° East 456 525 37,000  Level Chicago Center
02:28PM 41.0000 -86.0133 91° East 456 525 37,000  Level Chicago Center
02:29PM 40.9778 -85.8497 100° East 454 522 37,000  Level Chicago Center
02:30PM 40.9536 -85.6906 101° East 446 513 37,000  Level Chicago Center
02:31PM 40.9242 -85.4942 101° East 455 524 37,000  Level Chicago Center
02:32PM 40.8978 -85.3269 102° East 466 536 37,000  Level Chicago Center
02:33PM 40.8733 -85.1650 101° East 460 529 37,000  Level Chicago Center
02:34PM 40.8472 -85.0017 102° East 457 526 37,000  Level Chicago Center
02:36PM 40.8217 -84.8381 102° East 458 527 37,000  Level Chicago Center
02:37PM 40.7906 -84.6400 102° East 461 531 37,000  Level Chicago Center
02:38PM 40.7636 -84.4753 102° East 462 532 37,000  Level Chicago Center
02:39PM 40.7356 -84.3083 102° East 466 536 37,000  Level Chicago Center
02:39PM 40.7208 -84.2175 102° East 468 539 37,000  Level Indianapolis Center
02:40PM 40.6883 -84.0197 102° East 468 539 37,000 -60 Level Indianapolis Center
02:41PM 40.6606 -83.8497 102° East 469 540 36,900  Descending Indianapolis Center
02:42PM 40.6308 -83.6794 103° East 471 542 37,000  Climbing Indianapolis Center
02:43PM 40.6014 -83.5083 103° East 473 544 37,000  Level Indianapolis Center
02:44PM 40.5719 -83.3364 103° East 475 547 37,000 -60 Level Indianapolis Center
02:45PM 40.5425 -83.1667 103° East 471 542 36,900  Descending Indianapolis Center
02:46PM 40.5142 -83.0031 103° East 455 524 37,000  Climbing Indianapolis Center
02:48PM 40.4850 -82.8408 103° East 451 519 37,000  Level Indianapolis Center
02:49PM 40.4567 -82.6781 103° East 448 516 37,000  Level Indianapolis Center
02:50PM 40.4222 -82.4922 104° East 446 513 37,000  Level Indianapolis Center
02:51PM 40.3939 -82.3331 103° East 446 513 37,000  Level Indianapolis Center
02:52PM 40.3650 -82.1731 103° East 448 516 37,000  Level Indianapolis Center
02:53PM 40.3347 -82.0125 104° East 451 519 37,000  Level Indianapolis Center
02:54PM 40.2967 -81.8533 107° East 454 522 37,000  Level Indianapolis Center
02:55PM 40.2542 -81.6981 110° East 452 520 37,000  Level Indianapolis Center
02:56PM 40.2136 -81.5408 109° East 452 520 37,000  Level Indianapolis Center
02:57PM 40.1625 -81.3464 109° East 446 513 37,000 -240 Level Cleveland Center
02:58PM 40.1258 -81.2022 108° East 456 525 36,600 -1,020 Descending Cleveland Center
02:59PM 40.0683 -81.0578 117° Southeast 456 525 35,000 -840 Descending Cleveland Center
03:00PM 39.9706 -80.9514 140° Southeast 446 513 35,000 -60 Level Cleveland Center
03:01PM 39.8708 -80.8481 141° Southeast 446 513 34,900 -540 Descending Cleveland Center
03:02PM 39.7753 -80.7369 138° Southeast 453 521 34,000 -960 Descending Cleveland Center
03:03PM 39.7275 -80.5858 112° Southeast 453 521 33,000 -720 Descending Cleveland Center
03:04PM 39.6939 -80.4239 105° East 442 509 32,600 -1,080 Descending Cleveland Center
03:05PM 39.6686 -80.2594 101° East 453 521 30,900 -1,320 Descending Cleveland Center
03:06PM 39.7139 -80.1081 69° East 432 497 30,000 -900 Descending Cleveland Center
03:07PM 39.7717 -79.9619 63° Northeast 425 489 29,100 -1,440 Descending Cleveland Center
03:08PM 39.7247 -79.8219 114° Southeast 393 452 27,200 -1,080 Descending Cleveland Center
03:09PM 39.6406 -79.7122 135° Southeast 387 445 27,000 -120 Descending Cleveland Center
03:10PM 39.5414 -79.5853 135° Southeast 397 457 27,000  Level Washington Center
03:11PM 39.4872 -79.4558 118° Southeast 407 468 27,000 -660 Level Washington Center
03:12PM 39.4625 -79.3147 103° East 402 463 25,800 -1,740 Descending Washington Center
03:13PM 39.4297 -79.1517 105° East 407 468 23,600 -2,040 Descending Washington Center
03:14PM 39.4047 -79.0108 103° East 407 468 21,700 -1,920 Descending Washington Center
03:15PM 39.3814 -78.8781 103° East 393 452 19,800 -2,040 Descending Washington Center
03:16PM 39.3575 -78.7508 104° East 376 433 17,800 -2,280 Descending Washington Center
03:17PM 39.3356 -78.6319 103° East 360 414 15,400 -2,280 Descending Washington Center
03:18PM 39.3156 -78.5183 103° East 345 397 13,300 -1,620 Descending Washington Center
03:19PM 39.2953 -78.4075 103° East 327 376 12,200 -1,080 Descending Washington Center
03:20PM 39.2581 -78.3097 116° Southeast 315 362 11,200 -1,140 Descending Washington Center
03:21PM 39.2203 -78.2225 119° Southeast 295 339 10,000 -1,200 Descending Washington Center
03:22PM 39.1844 -78.1381 119° Southeast 274 315 8,900 -1,260 Descending Washington Center
03:23PM 39.1508 -78.0619 120° Southeast 262 302 7,500 -1,380 Descending Washington Center
03:24PM 39.1147 -77.9833 121° Southeast 257 296 6,200 -1,140 Descending Washington Center
03:25PM 39.0808 -77.9047 119° Southeast 257 296 5,300 -900 Descending Washington Center
03:26PM 39.0508 -77.8342 119° Southeast 252 290 4,500 -600 Descending Washington Center
03:27PM 39.0192 -77.7503 116° Southeast 247 284 4,200 -780 Descending Washington Center
03:29PM 38.9667 -77.6000 114° Southeast 168 193 2,000 -960 Descending Potomac TRACON